createdAt,value
2022-09-22T00:02:05.846Z,16.81
2022-09-22T00:04:39.330Z,17.22
2022-09-22T00:07:09.300Z,16.87
2022-09-22T00:09:48.933Z,17.19
2022-09-22T00:12:45.795Z,17.41
2022-09-22T00:15:18.401Z,17.34
2022-09-22T00:17:55.986Z,17.42
2022-09-22T00:21:02.641Z,17.34
2022-09-22T00:23:33.176Z,17.24
2022-09-22T00:26:10.323Z,17.56
2022-09-22T00:29:10.666Z,17.73
2022-09-22T00:31:47.689Z,17.65
2022-09-22T00:34:30.072Z,17.38
2022-09-22T00:40:41.978Z,17.41
2022-09-22T00:48:03.005Z,17.60
2022-09-22T00:50:37.541Z,17.53
2022-09-22T00:53:22.169Z,17.51
2022-09-22T00:56:28.576Z,17.31
2022-09-22T00:59:05.200Z,17.35
2022-09-22T01:01:43.015Z,17.37
2022-09-22T01:04:32.891Z,17.51
2022-09-22T01:07:04.799Z,17.64
2022-09-22T01:09:39.540Z,17.69
2022-09-22T01:12:27.936Z,17.70
2022-09-22T01:15:21.349Z,17.84
2022-09-22T01:22:48.490Z,17.52
2022-09-22T01:25:58.719Z,17.39
2022-09-22T01:29:29.590Z,17.58
2022-09-22T01:32:32.512Z,17.77
2022-09-22T01:35:47.551Z,17.08
2022-09-22T01:38:23.443Z,17.35
2022-09-22T01:41:04.892Z,17.46
2022-09-22T01:43:55.282Z,17.61
2022-09-22T01:46:34.311Z,16.89
2022-09-22T01:50:09.134Z,16.81
2022-09-22T01:52:47.106Z,17.02
2022-09-22T01:55:36.828Z,17.27
2022-09-22T01:58:25.524Z,17.66
2022-09-22T02:01:12.145Z,17.32
2022-09-22T02:03:53.827Z,17.61
2022-09-22T02:06:33.545Z,17.49
2022-09-22T02:09:13.552Z,17.50
2022-09-22T02:11:51.066Z,17.45
2022-09-22T02:14:19.196Z,17.30
2022-09-22T02:17:16.130Z,17.11
2022-09-22T02:19:46.060Z,17.04
2022-09-22T02:22:13.749Z,17.03
2022-09-22T02:24:45.613Z,17.25
2022-09-22T02:27:28.243Z,17.33
2022-09-22T02:30:28.135Z,17.37
2022-09-22T02:33:14.697Z,17.34
2022-09-22T02:35:49.762Z,17.60
2022-09-22T02:39:31.849Z,17.71
2022-09-22T02:42:51.912Z,17.62
2022-09-22T02:46:10.071Z,17.74
2022-09-22T02:49:22.868Z,17.56
2022-09-22T02:52:43.940Z,17.22
2022-09-22T02:55:13.716Z,16.77
2022-09-22T02:57:43.784Z,17.11
2022-09-22T03:00:12.394Z,17.16
2022-09-22T03:03:23.158Z,17.43
2022-09-22T03:05:50.840Z,17.78
2022-09-22T03:08:19.747Z,17.95
2022-09-22T03:10:47.499Z,18.17
2022-09-22T03:13:16.924Z,17.99
2022-09-22T03:16:12.647Z,18.07
2022-09-22T03:19:31.718Z,17.96
2022-09-22T03:22:01.885Z,18.14
2022-09-22T03:24:29.577Z,18.13
2022-09-22T03:27:25.054Z,18.13
2022-09-22T03:30:26.412Z,18.14
2022-09-22T03:32:54.146Z,18.34
2022-09-22T03:35:25.264Z,18.46
2022-09-22T03:38:00.288Z,18.56
2022-09-22T03:40:28.191Z,18.43
2022-09-22T03:43:30.766Z,18.58
2022-09-22T03:46:04.284Z,18.44
2022-09-22T03:48:34.477Z,18.17
2022-09-22T03:51:54.178Z,18.36
2022-09-22T03:54:21.832Z,18.50
2022-09-22T03:56:50.446Z,18.66
2022-09-22T03:59:20.537Z,18.54
2022-09-22T04:01:58.958Z,18.62
2022-09-22T04:04:26.752Z,18.64
2022-09-22T04:06:54.575Z,18.73
2022-09-22T04:09:24.963Z,18.77
2022-09-22T04:12:15.834Z,18.63
2022-09-22T04:14:43.795Z,18.30
2022-09-22T04:17:11.392Z,18.04
2022-09-22T04:19:39.219Z,17.51
2022-09-22T04:22:06.934Z,17.69
2022-09-22T04:24:34.703Z,17.86
2022-09-22T04:27:19.109Z,17.86
2022-09-22T04:30:22.806Z,18.05
2022-09-22T04:32:50.381Z,18.03
2022-09-22T04:35:47.963Z,17.76
2022-09-22T04:38:36.114Z,18.22
2022-09-22T04:41:03.864Z,17.12
2022-09-22T04:43:31.549Z,16.71
2022-09-22T04:49:18.847Z,17.75
2022-09-22T04:51:46.446Z,17.27
2022-09-22T04:54:16.553Z,17.85
2022-09-22T04:56:44.494Z,18.14
2022-09-22T05:00:03.954Z,17.67
2022-09-22T05:02:31.745Z,16.91
2022-09-22T05:05:15.848Z,17.22
2022-09-22T05:07:46.301Z,17.01
2022-09-22T05:10:37.058Z,17.48
2022-09-22T05:13:53.614Z,17.72
2022-09-22T05:16:28.394Z,17.55
2022-09-22T05:19:05.711Z,17.79
2022-09-22T05:32:39.539Z,17.99
2022-09-22T05:33:59.774Z,18.09
2022-09-22T05:36:50.457Z,18.50
2022-09-22T05:40:36.660Z,18.68
2022-09-22T05:42:25.304Z,18.61
2022-09-22T05:45:36.356Z,18.56
2022-09-22T05:48:09.348Z,17.82
2022-09-22T05:50:45.579Z,17.61
2022-09-22T05:53:34.989Z,18.44
2022-09-22T05:56:16.170Z,18.47
2022-09-22T05:58:47.780Z,18.59
2022-09-22T06:01:17.354Z,18.43
2022-09-22T06:03:51.211Z,19.06
2022-09-22T06:06:19.310Z,19.50
2022-09-22T06:20:38.907Z,20.44
2022-09-22T06:23:06.409Z,20.16
2022-09-22T06:25:33.901Z,20.18
2022-09-22T06:28:04.873Z,19.57
2022-09-22T06:30:34.068Z,20.36
2022-09-22T06:33:02.187Z,20.98
2022-09-22T06:35:37.592Z,20.79
2022-09-22T06:38:07.848Z,20.43
2022-09-22T06:40:36.480Z,21.16
2022-09-22T06:43:15.333Z,21.31
2022-09-22T06:45:42.951Z,21.31
2022-09-22T06:48:13.287Z,21.17
2022-09-22T06:50:41.194Z,21.02
2022-09-22T06:53:11.793Z,21.50
2022-09-22T06:55:40.531Z,21.90
2022-09-22T06:58:09.516Z,21.49
2022-09-22T07:00:37.382Z,22.04
2022-09-22T07:03:20.626Z,22.46
2022-09-22T07:06:01.120Z,22.57
2022-09-22T07:08:30.926Z,22.47
2022-09-22T07:11:04.345Z,22.44
2022-09-22T07:13:32.555Z,22.30
2022-09-22T07:16:04.727Z,21.98
2022-09-22T07:18:32.213Z,21.70
2022-09-22T07:21:05.488Z,22.59
2022-09-22T07:23:35.704Z,21.76
2022-09-22T07:26:05.863Z,22.42
2022-09-22T07:28:35.394Z,22.46
2022-09-22T07:31:07.716Z,21.76
2022-09-22T07:33:36.466Z,23.18
2022-09-22T07:36:14.325Z,23.11
2022-09-22T07:38:43.998Z,23.17
2022-09-22T07:41:19.231Z,21.94
2022-09-22T07:43:48.847Z,22.90
2022-09-22T07:46:16.302Z,23.57
2022-09-22T07:48:49.874Z,23.96
2022-09-22T07:51:23.041Z,22.88
2022-09-22T07:54:08.564Z,23.67
2022-09-22T07:56:40.219Z,23.95
2022-09-22T07:59:10.904Z,24.49
2022-09-22T08:01:44.475Z,24.64
2022-09-22T08:04:15.732Z,24.74
2022-09-22T08:06:44.654Z,24.47
2022-09-22T08:09:13.615Z,24.96
2022-09-22T08:11:48.545Z,24.79
2022-09-22T08:14:17.498Z,24.57
2022-09-22T08:16:46.035Z,25.10
2022-09-22T08:19:15.848Z,24.88
2022-09-22T08:21:48.908Z,24.17
2022-09-22T08:24:22.724Z,23.51
2022-09-22T08:26:52.643Z,23.80
2022-09-22T08:29:21.062Z,24.17
2022-09-22T08:31:49.545Z,25.16
2022-09-22T08:34:18.117Z,26.61
2022-09-22T08:36:48.237Z,26.49
2022-09-22T08:39:17.389Z,27.22
2022-09-22T08:42:22.095Z,27.16
2022-09-22T08:45:00.275Z,27.54
2022-09-22T08:47:57.348Z,28.08
2022-09-22T08:51:19.379Z,24.75
2022-09-22T08:53:50.457Z,27.21
2022-09-22T08:56:36.793Z,27.79
2022-09-22T08:59:12.864Z,28.07
2022-09-22T09:01:55.194Z,28.67
2022-09-22T09:07:22.884Z,26.69
2022-09-22T09:10:03.385Z,28.18
2022-09-22T09:12:48.836Z,28.71
2022-09-22T09:15:53.893Z,28.11
2022-09-22T09:18:29.025Z,28.98
2022-09-22T09:20:59.490Z,28.06
2022-09-22T09:26:27.589Z,31.76
2022-09-22T09:29:03.715Z,32.84
2022-09-22T09:31:39.752Z,31.80
2022-09-22T09:34:18.575Z,31.21
2022-09-22T09:36:52.843Z,30.68
2022-09-22T09:39:27.876Z,30.66
2022-09-22T09:41:57.287Z,31.24
2022-09-22T09:44:32.708Z,31.06
2022-09-22T09:47:09.191Z,31.09
2022-09-22T09:49:36.613Z,33.36
2022-09-22T09:52:11.237Z,33.74
2022-09-22T09:54:39.110Z,31.93
2022-09-22T09:57:10.717Z,30.09
2022-09-22T09:59:58.980Z,29.07
2022-09-22T10:02:35.933Z,28.67
2022-09-22T10:05:10.362Z,29.11
2022-09-22T10:07:44.540Z,28.76
2022-09-22T10:10:30.114Z,28.33
2022-09-22T10:13:43.304Z,27.10
2022-09-22T10:16:24.993Z,26.23
2022-09-22T10:19:23.987Z,25.46
2022-09-22T10:21:51.499Z,25.97
2022-09-22T10:24:31.660Z,25.82
2022-09-22T10:27:02.415Z,28.04
2022-09-22T10:29:32.819Z,28.63
2022-09-22T10:32:02.832Z,27.92
2022-09-22T10:37:15.455Z,26.83
2022-09-22T10:39:53.093Z,27.18
2022-09-22T10:42:37.759Z,26.57
2022-09-22T10:45:07.240Z,25.42
2022-09-22T10:47:57.619Z,25.55
2022-09-22T10:50:49.343Z,25.18
2022-09-22T10:53:43.788Z,25.38
2022-09-22T10:56:20.003Z,24.92
2022-09-22T10:59:08.335Z,24.55
2022-09-22T11:02:02.643Z,25.08
2022-09-22T11:04:50.584Z,24.71
2022-09-22T11:07:42.865Z,25.24
2022-09-22T11:11:11.199Z,24.86
2022-09-22T11:13:49.067Z,24.63
2022-09-22T11:16:35.013Z,24.81
2022-09-22T11:19:20.924Z,25.22
2022-09-22T11:21:54.172Z,26.16
2022-09-22T11:24:40.299Z,26.63
2022-09-22T11:27:15.973Z,27.05
2022-09-22T11:30:10.681Z,27.55
2022-09-22T11:32:54.817Z,27.75
2022-09-22T11:35:34.460Z,27.27
2022-09-22T11:38:26.582Z,27.04
2022-09-22T11:41:04.524Z,27.58
2022-09-22T11:43:57.039Z,27.01
2022-09-22T11:46:57.748Z,26.67
2022-09-22T11:49:46.393Z,26.86
2022-09-22T11:52:28.821Z,26.68
2022-09-22T11:55:23.655Z,25.67
2022-09-22T11:57:57.013Z,26.19
2022-09-22T12:00:24.942Z,26.43
2022-09-22T12:03:01.914Z,26.19
2022-09-22T12:05:47.976Z,25.77
2022-09-22T12:08:21.090Z,26.00
2022-09-22T12:10:52.013Z,25.86
2022-09-22T12:13:28.195Z,26.69
2022-09-22T12:16:07.205Z,25.27
2022-09-22T12:18:45.400Z,25.53
2022-09-22T12:21:31.028Z,25.37
2022-09-22T12:24:09.353Z,25.27
2022-09-22T12:26:41.096Z,25.66
2022-09-22T12:29:11.419Z,26.30
2022-09-22T12:31:40.430Z,25.53
2022-09-22T12:34:20.086Z,24.73
2022-09-22T12:36:50.657Z,24.51
2022-09-22T12:39:24.185Z,24.72
2022-09-22T12:41:57.989Z,25.31
2022-09-22T12:44:30.564Z,25.67
2022-09-22T12:47:07.986Z,25.10
2022-09-22T12:49:51.483Z,26.35
2022-09-22T12:52:57.395Z,25.55
2022-09-22T12:55:41.229Z,25.67
2022-09-22T12:58:20.598Z,25.85
2022-09-22T13:00:52.756Z,25.96
2022-09-22T13:03:28.300Z,25.67
2022-09-22T13:06:22.700Z,25.61
2022-09-22T13:08:53.027Z,25.56
2022-09-22T13:12:01.253Z,25.96
2022-09-22T13:15:19.858Z,25.80
2022-09-22T13:17:50.090Z,23.97
2022-09-22T13:20:30.381Z,24.42
2022-09-22T13:23:12.135Z,25.01
2022-09-22T13:25:41.089Z,24.42
2022-09-22T13:28:08.370Z,25.92
2022-09-22T13:30:37.824Z,25.64
2022-09-22T13:33:05.738Z,26.79
2022-09-22T13:35:39.051Z,26.22
2022-09-22T13:38:10.815Z,25.57
2022-09-22T13:40:38.213Z,25.57
2022-09-22T13:43:10.493Z,24.89
2022-09-22T13:45:39.956Z,25.25
2022-09-22T13:48:12.145Z,25.35
2022-09-22T13:50:53.947Z,25.19
2022-09-22T13:53:22.583Z,24.68
2022-09-22T13:55:53.991Z,25.36
2022-09-22T13:58:35.379Z,24.87
2022-09-22T14:01:19.875Z,24.82
2022-09-22T14:03:48.676Z,24.66
2022-09-22T14:06:19.454Z,24.78
2022-09-22T14:08:49.244Z,24.53
2022-09-22T14:11:21.583Z,25.01
2022-09-22T14:13:56.820Z,25.49
2022-09-22T14:16:30.039Z,24.90
2022-09-22T14:19:04.371Z,24.83
2022-09-22T14:21:40.245Z,25.12
2022-09-22T14:24:08.014Z,25.68
2022-09-22T14:26:38.904Z,24.49
2022-09-22T14:29:31.905Z,24.93
2022-09-22T14:32:22.774Z,24.67
2022-09-22T14:34:56.497Z,24.87
2022-09-22T14:37:32.309Z,25.02
2022-09-22T14:40:03.618Z,25.30
2022-09-22T14:42:33.258Z,24.55
2022-09-22T14:45:09.597Z,24.37
2022-09-22T14:47:41.684Z,24.42
2022-09-22T14:50:09.282Z,24.98
2022-09-22T14:52:47.036Z,25.20
2022-09-22T15:02:09.616Z,22.26
2022-09-22T15:04:44.736Z,22.53
2022-09-22T15:07:25.892Z,22.75
2022-09-22T15:09:57.672Z,22.52
2022-09-22T15:12:37.838Z,22.05
2022-09-22T15:15:16.535Z,22.11
2022-09-22T15:18:16.140Z,21.91
2022-09-22T15:20:53.607Z,22.54
2022-09-22T15:23:41.000Z,22.67
2022-09-22T15:26:42.002Z,22.41
2022-09-22T15:29:11.948Z,22.14
2022-09-22T15:31:39.832Z,22.53
2022-09-22T15:34:10.461Z,22.54
2022-09-22T15:36:44.191Z,22.13
2022-09-22T15:39:22.952Z,22.15
2022-09-22T15:41:52.294Z,21.82
2022-09-22T15:44:22.849Z,22.12
2022-09-22T15:46:54.782Z,22.35
2022-09-22T15:49:26.589Z,22.08
2022-09-22T15:51:57.656Z,21.95
2022-09-22T15:54:31.120Z,22.12
2022-09-22T15:57:00.098Z,22.06
2022-09-22T15:59:32.411Z,22.19
2022-09-22T16:02:01.335Z,22.26
2022-09-22T16:04:32.455Z,22.42
2022-09-22T16:07:04.078Z,22.34
2022-09-22T16:09:32.296Z,22.00
2022-09-22T16:12:01.084Z,22.20
2022-09-22T16:14:28.908Z,22.13
2022-09-22T16:16:56.720Z,21.84
2022-09-22T16:19:26.064Z,21.71
2022-09-22T16:21:57.225Z,21.66
2022-09-22T16:24:28.066Z,21.85
2022-09-22T16:26:56.293Z,21.74
2022-09-22T16:29:25.165Z,21.48
2022-09-22T16:31:52.725Z,21.32
2022-09-22T16:34:21.298Z,21.28
2022-09-22T16:36:48.923Z,21.27
2022-09-22T16:39:17.321Z,21.01
2022-09-22T16:41:45.944Z,21.25
2022-09-22T16:44:13.701Z,21.15
2022-09-22T16:46:41.248Z,21.35
2022-09-22T16:49:12.135Z,21.19
2022-09-22T16:51:42.302Z,21.57
2022-09-22T16:54:14.969Z,21.38
2022-09-22T16:56:45.471Z,21.38
2022-09-22T16:59:16.545Z,20.96
2022-09-22T17:01:44.369Z,20.75
2022-09-22T17:04:15.839Z,20.56
2022-09-22T17:06:43.804Z,20.44
2022-09-22T17:09:13.114Z,20.49
2022-09-22T17:11:43.671Z,20.60
2022-09-22T17:14:14.108Z,20.62
2022-09-22T17:16:45.848Z,20.75
2022-09-22T17:19:20.105Z,20.68
2022-09-22T17:21:49.524Z,20.37
2022-09-22T17:24:17.407Z,20.22
2022-09-22T17:26:50.712Z,20.17
2022-09-22T17:29:26.637Z,20.08
2022-09-22T17:32:00.347Z,20.07
2022-09-22T17:34:29.016Z,20.11
2022-09-22T17:36:57.499Z,19.76
2022-09-22T17:39:29.126Z,19.70
2022-09-22T17:41:56.713Z,20.00
2022-09-22T17:44:28.556Z,19.78
2022-09-22T17:47:18.463Z,19.84
2022-09-22T17:50:04.880Z,20.07
2022-09-22T17:52:32.450Z,19.97
2022-09-22T17:55:07.092Z,19.89
2022-09-22T17:57:45.505Z,19.51
2022-09-22T18:00:21.276Z,19.47
2022-09-22T18:02:51.127Z,19.02
2022-09-22T18:05:25.543Z,19.11
2022-09-22T18:07:57.917Z,19.07
2022-09-22T18:10:32.254Z,19.08
2022-09-22T18:13:01.371Z,19.06
2022-09-22T18:15:29.398Z,19.10
2022-09-22T18:17:58.332Z,18.95
2022-09-22T18:20:27.516Z,18.94
2022-09-22T18:22:56.122Z,18.89
2022-09-22T18:25:25.808Z,18.44
2022-09-22T18:27:56.444Z,18.35
2022-09-22T18:30:27.802Z,18.23
2022-09-22T18:32:56.730Z,18.68
2022-09-22T18:35:24.902Z,18.58
2022-09-22T18:37:52.532Z,18.79
2022-09-22T18:40:20.097Z,18.93
2022-09-22T18:42:47.646Z,18.90
2022-09-22T18:45:15.284Z,18.83
2022-09-22T18:47:43.570Z,18.79
2022-09-22T18:50:11.970Z,18.65
2022-09-22T18:52:43.196Z,18.93
2022-09-22T18:55:12.009Z,18.57
2022-09-22T18:57:39.605Z,18.81
2022-09-22T19:00:08.042Z,18.82
2022-09-22T19:02:35.643Z,18.49
2022-09-22T19:05:05.830Z,18.88
2022-09-22T19:07:42.886Z,18.66
2022-09-22T19:10:26.352Z,18.40
2022-09-22T19:12:56.010Z,18.30
2022-09-22T19:15:26.826Z,18.33
2022-09-22T19:17:54.353Z,18.40
2022-09-22T19:20:24.054Z,18.56
2022-09-22T19:22:52.937Z,18.48
2022-09-22T19:25:22.110Z,18.54
2022-09-22T19:27:53.928Z,18.36
2022-09-22T19:30:24.914Z,18.34
2022-09-22T19:32:57.663Z,18.59
2022-09-22T19:35:26.340Z,18.64
2022-09-22T19:37:54.117Z,18.75
2022-09-22T19:40:24.448Z,18.73
2022-09-22T19:42:54.492Z,18.79
2022-09-22T19:45:24.011Z,18.39
2022-09-22T19:47:56.097Z,18.54
2022-09-22T19:50:24.438Z,18.57
2022-09-22T19:52:52.570Z,18.82
2022-09-22T19:55:21.348Z,19.01
2022-09-22T19:57:52.917Z,19.25
2022-09-22T20:00:26.178Z,19.03
2022-09-22T20:02:58.587Z,18.77
2022-09-22T20:05:38.455Z,18.79
2022-09-22T20:08:08.432Z,18.75
2022-09-22T20:10:37.196Z,18.79
2022-09-22T20:13:46.278Z,18.64
2022-09-22T20:16:14.210Z,18.91
2022-09-22T20:18:42.107Z,18.65
2022-09-22T20:21:23.380Z,18.26
2022-09-22T20:23:56.307Z,18.65
2022-09-22T20:26:24.559Z,18.72
2022-09-22T20:28:52.777Z,18.61
2022-09-22T20:31:20.489Z,18.73
2022-09-22T20:33:48.369Z,18.70
2022-09-22T20:36:16.574Z,18.76
2022-09-22T20:38:51.523Z,18.72
2022-09-22T20:41:22.311Z,18.11
2022-09-22T20:43:51.219Z,17.95
2022-09-22T20:46:21.697Z,18.51
2022-09-22T20:48:49.609Z,18.73
2022-09-22T20:51:20.042Z,18.75
2022-09-22T20:53:47.929Z,18.86
2022-09-22T20:56:20.993Z,18.47
2022-09-22T20:58:48.686Z,18.43
2022-09-22T21:01:17.799Z,18.51
2022-09-22T21:03:45.517Z,18.45
2022-09-22T21:06:13.523Z,18.16
2022-09-22T21:09:02.109Z,17.93
2022-09-22T21:11:30.539Z,17.58
2022-09-22T21:14:02.054Z,17.27
2022-09-22T21:16:34.630Z,17.09
2022-09-22T21:19:02.638Z,17.18
2022-09-22T21:21:32.634Z,17.39
2022-09-22T21:24:02.032Z,17.39
2022-09-22T21:26:31.019Z,17.36
2022-09-22T21:28:59.613Z,17.48
2022-09-22T21:31:28.004Z,17.39
2022-09-22T21:33:55.959Z,17.35
2022-09-22T21:36:24.422Z,17.77
2022-09-22T21:38:57.330Z,17.39
2022-09-22T21:41:27.413Z,17.37
2022-09-22T21:43:55.651Z,17.30
2022-09-22T21:46:26.264Z,16.74
2022-09-22T21:48:59.314Z,16.72
2022-09-22T21:51:29.395Z,16.90
2022-09-22T21:53:56.966Z,17.04
2022-09-22T21:56:25.837Z,17.15
2022-09-22T21:58:55.214Z,17.10
2022-09-22T22:01:23.989Z,16.90
2022-09-22T22:03:53.500Z,17.01
2022-09-22T22:06:23.314Z,16.86
2022-09-22T22:09:00.806Z,16.90
2022-09-22T22:11:49.438Z,16.91
2022-09-22T22:14:19.513Z,16.95
2022-09-22T22:16:50.053Z,16.50
2022-09-22T22:19:20.440Z,16.48
2022-09-22T22:21:50.849Z,16.61
2022-09-22T22:24:40.863Z,16.61
2022-09-22T22:27:10.506Z,16.81
2022-09-22T22:29:41.281Z,16.97
2022-09-22T22:32:10.644Z,16.95
2022-09-22T22:34:38.281Z,16.67
2022-09-22T22:37:09.757Z,16.61
2022-09-22T22:39:39.981Z,16.64
2022-09-22T22:42:07.589Z,16.77
2022-09-22T22:44:35.344Z,16.61
2022-09-22T22:47:02.749Z,16.53
2022-09-22T22:49:33.245Z,16.64
2022-09-22T22:52:03.303Z,16.63
2022-09-22T22:54:33.933Z,16.91
2022-09-22T22:57:01.381Z,16.85
2022-09-22T22:59:30.000Z,17.06
2022-09-22T23:01:57.506Z,17.12
2022-09-22T23:04:25.238Z,17.04
2022-09-22T23:06:52.648Z,17.12
2022-09-22T23:09:21.424Z,17.02
2022-09-22T23:11:49.156Z,16.95
2022-09-22T23:14:18.956Z,16.82
2022-09-22T23:16:49.416Z,16.91
2022-09-22T23:19:18.335Z,16.82
2022-09-22T23:21:46.799Z,17.03
2022-09-22T23:24:16.780Z,16.81
2022-09-22T23:26:46.005Z,16.63
2022-09-22T23:29:13.888Z,16.54
2022-09-22T23:31:41.396Z,16.38
2022-09-22T23:34:08.916Z,16.36
2022-09-22T23:36:36.378Z,16.32
2022-09-22T23:39:04.614Z,16.25
2022-09-22T23:41:34.541Z,16.21
2022-09-22T23:44:03.167Z,16.21
2022-09-22T23:46:31.837Z,16.20
2022-09-22T23:49:00.254Z,16.18
2022-09-22T23:51:28.566Z,16.19
2022-09-22T23:53:56.490Z,16.22
2022-09-22T23:56:24.716Z,16.16
2022-09-22T23:58:52.699Z,16.23
